River Hills, Wisconsin
Current Conditions -  °F | °C
As of 11:45 AM on Saturday 25 Oct 2014 (Local Time) from KMWC Reporting Station
Clear Clear  
Wind Chill: 64°   Ceiling: Unl
Heat Index: 64°   Visibility: 10mi
Dew Point: 32°   Wind: 17mph
Humidity: 30%   Direction: 300°WNW
Pressure: 29.91"   Gusts: 23mph
Location:  43.1576°N, 87.9144°W
Report Text: KMWC 251645Z AUTO 30015G20KT 10SM SKC 18/00 A2991
Loading
Personal Weather Stations






























Interactive Weather Map New forecast layout! Learn more

10-Day Weather Forecast

Advertisements
Track Severe Weather on mobile